Aviation Digital Data Service (ADDS)

Output produced by METARs form (1906 UTC 19 April 2015)
found at http://www.aviationweather.gov/adds/metars/
 
KDOV 191858Z AUTO 09018G26KT 10SM FEW160 13/05 A3013 RMK AO2 PK WND 09027/44 SLP206 T01330049 VISNO RWY19 CHINO RWY19 $
TAF AMD KDOV 1918/2022 10012G18KT 9999 SCT250 QNH3012INS 
     TEMPO 1918/1922 10015G25KT 
     BECMG 1921/1922 09012G18KT 9999 FEW015 BKN150 QNH3002INS 
     BECMG 2002/2003 09012G18KT 9999 OVC010 QNH2985INS 
     BECMG 2007/2008 10015G25KT 6000 -SHRA OVC005 520203 QNH2964INS 
     BECMG 2016/2017 16010G15KT 9999 NSW SCT030 QNH2957INS TX20/2016Z TN14/2003Z AMD 191849